Pagrindinis puslapis
METAR-TAF:

METAR-TAF

Oro uostai :

Rangūnas, Mianmaras

platuma: 16-46N, ilguma: 096-10E, Aukštis: 14 m

Dabartinis oras

Ataskaita buvo paskelbta 16 minutes, ne 00:30 UTC
Vėjas 3 kt iš Vakarų/Šiaurės Vakarų
Temperatūra 21°C
Drėgmė 100%
Slėgis 1008 hPa
Matomumas: 2000 m
Mažai debesys ne aukštis 2000 ft
rūkana

METAR: VYYY 260030Z 30003KT 2000 BR FEW020 21/21 Q1008

Laikas: 07:16 (00:46 UTC)

Prognozė

Ataskaita buvo paskelbta 1 valandą ir 46 minutes, ne 23:00 UTC
Prognozė galioja nuo 26 metu 00 UTC su 26 metu 24 UTC
Vėjas 6 kt iš Vakarų/Pietvakarių
Matomumas: 7000 m
Tapsmas
nuo 26 metu 00 UTC su 26 metu 02 UTC
Vėjas 4 kt iš Vakarų/Pietvakarių
Matomumas: 4000 m
Mažai debesys ne aukštis 2000 ft
rūkana
Laikinai
nuo 26 metu 06 UTC su 26 metu 12 UTC
Vėjas 5 kt iš Pietų su gūsio iki 15 kt
Matomumas: 6000 m
migla

TAF: VYYY 252300Z 2600/2624 24006KT 7000 NSC BECMG 2600/2602 25004KT 4000 BR FEW020 TEMPO 2606/2612 17005G15KT 6000 HZ NSC

Orai ataskaitas ir orų prognozės (METAR, TAF).

turimą stotys yra geltonos ir raudonos taškus žemėlapyje.

Perkelti pele per norėdami pamatyti stoties vardą.

Tada spustelėkite, norėdami matyti oro stebėjimo ir prognozės.

Norėdami pakeisti žemėlapį: spustelėkite ant žalios mygtukų su juodo kryžiaus žemyn,; žalią mygtuką su brūkšneliu, jei norite nutolinti; arba žalių rodyklių gretimoms žemėlapius.


METAR-TAF: